Aviation Digital Data Service (ADDS)

Output produced by METARs form (0217 UTC 16 January 2019)
found at http://www.aviationweather.gov/metar/data/
 
GVAC 160200Z 03007KT 9999 SCT014 SCT200 20/16 Q1017 NOSIG
TAF GVAC 152300Z 1600/1706 04013KT 9999 SCT014
       
TAF GVBA 152300Z 1600/1706 03016KT 9999 FEW014 
     TEMPO 1600/1608 05006KT
       
GVSV 160200Z 07015KT 9999 FEW020 21/15 Q1017 NOSIG
TAF GVSV 152300Z 1600/1706 06018KT 9999 FEW020